sensor_id;sensor_type;location;lat;lon;timestamp;P1;durP1;ratioP1;P2;durP2;ratioP2
42846;SDS011;28495;49.916;14.536;2022-12-22T00:00:11;17.35;;;9.68;;
42846;SDS011;28495;49.916;14.536;2022-12-22T00:05:59;19.17;;;10.45;;
42846;SDS011;28495;49.916;14.536;2022-12-22T00:11:38;19.65;;;10.85;;
42846;SDS011;28495;49.916;14.536;2022-12-22T00:17:27;27.58;;;14.48;;
42846;SDS011;28495;49.916;14.536;2022-12-22T00:23:10;21.10;;;11.73;;
42846;SDS011;28495;49.916;14.536;2022-12-22T00:28:49;21.02;;;11.38;;
42846;SDS011;28495;49.916;14.536;2022-12-22T00:34:28;24.90;;;15.10;;
42846;SDS011;28495;49.916;14.536;2022-12-22T00:40:18;24.90;;;13.13;;
42846;SDS011;28495;49.916;14.536;2022-12-22T00:45:59;22.40;;;11.65;;
42846;SDS011;28495;49.916;14.536;2022-12-22T00:51:41;23.00;;;12.88;;
42846;SDS011;28495;49.916;14.536;2022-12-22T00:57:20;26.60;;;15.27;;
42846;SDS011;28495;49.916;14.536;2022-12-22T01:03:04;25.15;;;13.80;;
42846;SDS011;28495;49.916;14.536;2022-12-22T01:08:43;23.38;;;13.38;;
42846;SDS011;28495;49.916;14.536;2022-12-22T01:14:23;18.33;;;10.75;;
42846;SDS011;28495;49.916;14.536;2022-12-22T01:20:02;24.90;;;13.52;;
42846;SDS011;28495;49.916;14.536;2022-12-22T01:25:42;24.35;;;13.70;;
42846;SDS011;28495;49.916;14.536;2022-12-22T01:31:28;19.27;;;11.00;;
42846;SDS011;28495;49.916;14.536;2022-12-22T01:37:10;21.90;;;11.70;;
42846;SDS011;28495;49.916;14.536;2022-12-22T01:42:49;19.20;;;10.63;;
42846;SDS011;28495;49.916;14.536;2022-12-22T01:48:29;16.60;;;9.93;;
42846;SDS011;28495;49.916;14.536;2022-12-22T01:54:10;19.05;;;10.75;;
42846;SDS011;28495;49.916;14.536;2022-12-22T01:59:51;16.13;;;9.43;;
42846;SDS011;28495;49.916;14.536;2022-12-22T02:05:34;17.52;;;10.27;;
42846;SDS011;28495;49.916;14.536;2022-12-22T02:29:51;15.98;;;9.93;;
42846;SDS011;28495;49.916;14.536;2022-12-22T02:36:18;17.23;;;9.18;;
42846;SDS011;28495;49.916;14.536;2022-12-22T02:42:02;13.25;;;8.13;;
42846;SDS011;28495;49.916;14.536;2022-12-22T02:53:42;12.27;;;7.80;;
42846;SDS011;28495;49.916;14.536;2022-12-22T02:59:22;13.05;;;8.10;;
42846;SDS011;28495;49.916;14.536;2022-12-22T03:05:01;14.32;;;8.93;;
42846;SDS011;28495;49.916;14.536;2022-12-22T03:10:40;16.48;;;9.15;;
42846;SDS011;28495;49.916;14.536;2022-12-22T03:16:20;15.32;;;9.23;;
42846;SDS011;28495;49.916;14.536;2022-12-22T03:21:59;14.43;;;8.02;;
42846;SDS011;28495;49.916;14.536;2022-12-22T03:27:38;13.40;;;7.57;;
42846;SDS011;28495;49.916;14.536;2022-12-22T03:32:59;10.35;;;6.40;;
42846;SDS011;28495;49.916;14.536;2022-12-22T03:38:20;14.75;;;7.43;;
42846;SDS011;28495;49.916;14.536;2022-12-22T03:43:40;15.40;;;8.45;;
42846;SDS011;28495;49.916;14.536;2022-12-22T03:49:20;13.25;;;8.38;;
42846;SDS011;28495;49.916;14.536;2022-12-22T03:54:43;12.85;;;7.90;;
42846;SDS011;28495;49.916;14.536;2022-12-22T04:00:04;10.38;;;6.63;;
42846;SDS011;28495;49.916;14.536;2022-12-22T04:05:31;11.02;;;6.70;;
42846;SDS011;28495;49.916;14.536;2022-12-22T04:10:51;11.02;;;6.65;;
42846;SDS011;28495;49.916;14.536;2022-12-22T04:16:31;10.38;;;7.10;;
42846;SDS011;28495;49.916;14.536;2022-12-22T04:21:52;21.70;;;12.18;;
42846;SDS011;28495;49.916;14.536;2022-12-22T04:27:14;32.50;;;20.17;;
42846;SDS011;28495;49.916;14.536;2022-12-22T04:32:34;25.92;;;16.17;;
42846;SDS011;28495;49.916;14.536;2022-12-22T04:37:55;22.08;;;13.00;;
42846;SDS011;28495;49.916;14.536;2022-12-22T04:43:16;16.88;;;9.18;;
42846;SDS011;28495;49.916;14.536;2022-12-22T04:48:36;12.77;;;7.85;;
42846;SDS011;28495;49.916;14.536;2022-12-22T04:53:57;11.65;;;7.75;;
42846;SDS011;28495;49.916;14.536;2022-12-22T04:59:18;11.25;;;6.95;;
42846;SDS011;28495;49.916;14.536;2022-12-22T05:04:38;10.75;;;7.18;;
42846;SDS011;28495;49.916;14.536;2022-12-22T05:09:59;12.15;;;7.03;;
42846;SDS011;28495;49.916;14.536;2022-12-22T05:15:20;10.30;;;7.53;;
42846;SDS011;28495;49.916;14.536;2022-12-22T05:20:45;12.52;;;7.38;;
42846;SDS011;28495;49.916;14.536;2022-12-22T05:26:07;12.75;;;6.75;;
42846;SDS011;28495;49.916;14.536;2022-12-22T05:31:28;14.75;;;7.72;;
42846;SDS011;28495;49.916;14.536;2022-12-22T05:36:49;10.25;;;6.05;;
42846;SDS011;28495;49.916;14.536;2022-12-22T05:42:19;14.15;;;7.10;;
42846;SDS011;28495;49.916;14.536;2022-12-22T05:47:55;11.77;;;7.30;;
42846;SDS011;28495;49.916;14.536;2022-12-22T05:53:16;10.80;;;7.28;;
42846;SDS011;28495;49.916;14.536;2022-12-22T05:58:37;10.00;;;6.50;;
42846;SDS011;28495;49.916;14.536;2022-12-22T06:03:58;10.30;;;6.90;;
42846;SDS011;28495;49.916;14.536;2022-12-22T06:09:20;13.20;;;8.02;;
42846;SDS011;28495;49.916;14.536;2022-12-22T06:14:41;37.25;;;10.77;;
42846;SDS011;28495;49.916;14.536;2022-12-22T06:20:02;17.23;;;10.48;;
42846;SDS011;28495;49.916;14.536;2022-12-22T06:25:23;31.67;;;21.52;;
42846;SDS011;28495;49.916;14.536;2022-12-22T06:30:44;14.85;;;9.10;;
42846;SDS011;28495;49.916;14.536;2022-12-22T06:36:06;11.25;;;7.63;;
42846;SDS011;28495;49.916;14.536;2022-12-22T06:41:27;13.18;;;8.60;;
42846;SDS011;28495;49.916;14.536;2022-12-22T06:47:07;12.38;;;8.18;;
42846;SDS011;28495;49.916;14.536;2022-12-22T06:52:27;14.82;;;9.60;;
42846;SDS011;28495;49.916;14.536;2022-12-22T06:57:48;16.50;;;9.68;;
42846;SDS011;28495;49.916;14.536;2022-12-22T07:03:09;19.55;;;11.68;;
42846;SDS011;28495;49.916;14.536;2022-12-22T07:08:30;15.90;;;11.25;;
42846;SDS011;28495;49.916;14.536;2022-12-22T07:13:51;10.32;;;6.65;;
42846;SDS011;28495;49.916;14.536;2022-12-22T07:19:12;13.38;;;7.28;;
42846;SDS011;28495;49.916;14.536;2022-12-22T07:24:33;10.65;;;7.03;;
42846;SDS011;28495;49.916;14.536;2022-12-22T07:29:54;8.60;;;5.88;;
42846;SDS011;28495;49.916;14.536;2022-12-22T07:35:14;6.97;;;4.97;;
42846;SDS011;28495;49.916;14.536;2022-12-22T07:40:35;8.85;;;5.50;;
42846;SDS011;28495;49.916;14.536;2022-12-22T07:46:01;11.27;;;6.47;;
42846;SDS011;28495;49.916;14.536;2022-12-22T07:51:21;7.85;;;5.72;;
42846;SDS011;28495;49.916;14.536;2022-12-22T07:56:43;10.30;;;6.30;;
42846;SDS011;28495;49.916;14.536;2022-12-22T08:02:05;8.05;;;6.13;;
42846;SDS011;28495;49.916;14.536;2022-12-22T08:07:29;10.57;;;6.20;;
42846;SDS011;28495;49.916;14.536;2022-12-22T08:12:51;10.02;;;5.72;;
42846;SDS011;28495;49.916;14.536;2022-12-22T08:18:12;7.75;;;3.83;;
42846;SDS011;28495;49.916;14.536;2022-12-22T08:23:33;7.68;;;5.07;;
42846;SDS011;28495;49.916;14.536;2022-12-22T08:28:55;5.18;;;4.05;;
42846;SDS011;28495;49.916;14.536;2022-12-22T08:34:23;5.95;;;3.30;;
42846;SDS011;28495;49.916;14.536;2022-12-22T08:39:44;4.40;;;3.30;;
42846;SDS011;28495;49.916;14.536;2022-12-22T08:45:10;4.00;;;3.20;;
42846;SDS011;28495;49.916;14.536;2022-12-22T08:50:30;6.30;;;3.83;;
42846;SDS011;28495;49.916;14.536;2022-12-22T08:55:52;3.63;;;2.95;;
42846;SDS011;28495;49.916;14.536;2022-12-22T09:01:14;5.85;;;3.55;;
42846;SDS011;28495;49.916;14.536;2022-12-22T09:06:39;5.72;;;4.00;;
42846;SDS011;28495;49.916;14.536;2022-12-22T09:12:00;6.20;;;4.20;;
42846;SDS011;28495;49.916;14.536;2022-12-22T09:17:22;6.78;;;4.57;;
42846;SDS011;28495;49.916;14.536;2022-12-22T09:22:42;6.85;;;4.40;;
42846;SDS011;28495;49.916;14.536;2022-12-22T09:28:05;5.75;;;3.80;;
42846;SDS011;28495;49.916;14.536;2022-12-22T09:33:26;6.05;;;4.55;;
42846;SDS011;28495;49.916;14.536;2022-12-22T09:38:47;3.85;;;3.10;;
42846;SDS011;28495;49.916;14.536;2022-12-22T09:49:53;6.50;;;4.38;;
42846;SDS011;28495;49.916;14.536;2022-12-22T10:00:44;7.45;;;4.43;;
42846;SDS011;28495;49.916;14.536;2022-12-22T10:06:13;5.70;;;4.03;;
42846;SDS011;28495;49.916;14.536;2022-12-22T10:11:39;6.80;;;3.57;;
42846;SDS011;28495;49.916;14.536;2022-12-22T10:17:17;9.13;;;3.85;;
42846;SDS011;28495;49.916;14.536;2022-12-22T10:22:53;5.00;;;3.33;;
42846;SDS011;28495;49.916;14.536;2022-12-22T10:29:14;6.75;;;4.20;;
42846;SDS011;28495;49.916;14.536;2022-12-22T10:34:19;6.60;;;3.92;;
42846;SDS011;28495;49.916;14.536;2022-12-22T10:39:40;6.25;;;3.85;;
42846;SDS011;28495;49.916;14.536;2022-12-22T10:45:01;6.38;;;3.97;;
42846;SDS011;28495;49.916;14.536;2022-12-22T10:50:21;6.78;;;3.80;;
42846;SDS011;28495;49.916;14.536;2022-12-22T10:55:43;7.40;;;4.55;;
42846;SDS011;28495;49.916;14.536;2022-12-22T11:01:04;6.78;;;3.58;;
42846;SDS011;28495;49.916;14.536;2022-12-22T11:06:25;3.15;;;2.80;;
42846;SDS011;28495;49.916;14.536;2022-12-22T11:11:51;5.07;;;3.53;;
42846;SDS011;28495;49.916;14.536;2022-12-22T11:17:29;7.35;;;3.20;;
42846;SDS011;28495;49.916;14.536;2022-12-22T11:40:41;6.73;;;3.87;;
42846;SDS011;28495;49.916;14.536;2022-12-22T11:57:22;4.35;;;2.60;;
42846;SDS011;28495;49.916;14.536;2022-12-22T12:03:17;3.75;;;2.47;;
42846;SDS011;28495;49.916;14.536;2022-12-22T12:14:33;5.55;;;2.50;;
42846;SDS011;28495;49.916;14.536;2022-12-22T12:26:18;3.90;;;2.33;;
42846;SDS011;28495;49.916;14.536;2022-12-22T12:37:28;6.15;;;3.28;;
42846;SDS011;28495;49.916;14.536;2022-12-22T12:42:52;4.57;;;2.60;;
42846;SDS011;28495;49.916;14.536;2022-12-22T12:48:36;5.20;;;2.33;;
42846;SDS011;28495;49.916;14.536;2022-12-22T12:59:49;4.40;;;2.30;;
42846;SDS011;28495;49.916;14.536;2022-12-22T13:05:17;6.47;;;2.30;;
42846;SDS011;28495;49.916;14.536;2022-12-22T13:21:39;4.03;;;1.83;;
42846;SDS011;28495;49.916;14.536;2022-12-22T13:27:13;4.72;;;2.20;;
42846;SDS011;28495;49.916;14.536;2022-12-22T13:32:34;3.85;;;2.15;;
42846;SDS011;28495;49.916;14.536;2022-12-22T13:37:55;6.32;;;2.55;;
42846;SDS011;28495;49.916;14.536;2022-12-22T13:43:16;5.70;;;2.30;;
42846;SDS011;28495;49.916;14.536;2022-12-22T13:48:44;3.72;;;2.38;;
42846;SDS011;28495;49.916;14.536;2022-12-22T13:59:43;3.90;;;2.00;;
42846;SDS011;28495;49.916;14.536;2022-12-22T14:05:08;4.82;;;1.92;;
42846;SDS011;28495;49.916;14.536;2022-12-22T14:10:41;2.50;;;1.35;;
42846;SDS011;28495;49.916;14.536;2022-12-22T14:16:04;5.93;;;2.17;;
42846;SDS011;28495;49.916;14.536;2022-12-22T14:21:25;3.47;;;1.70;;
42846;SDS011;28495;49.916;14.536;2022-12-22T14:26:46;3.42;;;1.40;;
42846;SDS011;28495;49.916;14.536;2022-12-22T14:32:08;5.55;;;2.60;;
42846;SDS011;28495;49.916;14.536;2022-12-22T14:37:31;1.85;;;0.80;;
42846;SDS011;28495;49.916;14.536;2022-12-22T14:42:52;4.03;;;1.30;;
42846;SDS011;28495;49.916;14.536;2022-12-22T14:48:18;3.05;;;1.60;;
42846;SDS011;28495;49.916;14.536;2022-12-22T14:53:47;3.10;;;1.33;;
42846;SDS011;28495;49.916;14.536;2022-12-22T14:59:21;3.10;;;1.65;;
42846;SDS011;28495;49.916;14.536;2022-12-22T15:04:46;3.60;;;1.48;;
42846;SDS011;28495;49.916;14.536;2022-12-22T15:10:07;2.05;;;1.30;;
42846;SDS011;28495;49.916;14.536;2022-12-22T15:15:36;3.53;;;1.38;;
42846;SDS011;28495;49.916;14.536;2022-12-22T15:20:57;3.58;;;1.33;;
42846;SDS011;28495;49.916;14.536;2022-12-22T15:26:18;4.55;;;2.35;;
42846;SDS011;28495;49.916;14.536;2022-12-22T15:31:40;2.65;;;1.27;;
42846;SDS011;28495;49.916;14.536;2022-12-22T15:37:02;2.70;;;1.23;;
42846;SDS011;28495;49.916;14.536;2022-12-22T15:42:22;2.88;;;1.48;;
42846;SDS011;28495;49.916;14.536;2022-12-22T15:47:44;2.90;;;1.50;;
42846;SDS011;28495;49.916;14.536;2022-12-22T15:53:11;2.47;;;1.10;;
42846;SDS011;28495;49.916;14.536;2022-12-22T15:58:36;2.72;;;1.50;;
42846;SDS011;28495;49.916;14.536;2022-12-22T16:03:57;3.90;;;1.65;;
42846;SDS011;28495;49.916;14.536;2022-12-22T16:09:27;1.67;;;1.20;;
42846;SDS011;28495;49.916;14.536;2022-12-22T16:14:57;1.92;;;1.42;;
42846;SDS011;28495;49.916;14.536;2022-12-22T16:20:20;2.03;;;1.55;;
42846;SDS011;28495;49.916;14.536;2022-12-22T16:25:42;3.00;;;1.42;;
42846;SDS011;28495;49.916;14.536;2022-12-22T16:31:05;1.90;;;1.27;;
42846;SDS011;28495;49.916;14.536;2022-12-22T16:36:35;2.20;;;1.42;;
42846;SDS011;28495;49.916;14.536;2022-12-22T16:41:57;2.95;;;2.00;;
42846;SDS011;28495;49.916;14.536;2022-12-22T16:47:21;3.58;;;2.30;;
42846;SDS011;28495;49.916;14.536;2022-12-22T16:52:45;2.35;;;1.40;;
42846;SDS011;28495;49.916;14.536;2022-12-22T16:58:10;3.22;;;1.35;;
42846;SDS011;28495;49.916;14.536;2022-12-22T17:03:33;3.95;;;1.20;;
42846;SDS011;28495;49.916;14.536;2022-12-22T17:08:56;3.47;;;0.93;;
42846;SDS011;28495;49.916;14.536;2022-12-22T17:19:52;1.40;;;0.80;;
42846;SDS011;28495;49.916;14.536;2022-12-22T17:25:22;1.48;;;0.85;;
42846;SDS011;28495;49.916;14.536;2022-12-22T17:30:45;3.38;;;1.33;;
42846;SDS011;28495;49.916;14.536;2022-12-22T17:36:08;1.50;;;1.10;;
42846;SDS011;28495;49.916;14.536;2022-12-22T17:41:38;1.77;;;1.40;;
42846;SDS011;28495;49.916;14.536;2022-12-22T17:46:59;2.50;;;1.10;;
42846;SDS011;28495;49.916;14.536;2022-12-22T17:52:21;1.40;;;1.15;;
42846;SDS011;28495;49.916;14.536;2022-12-22T17:57:43;1.35;;;1.13;;
42846;SDS011;28495;49.916;14.536;2022-12-22T18:03:04;1.30;;;1.20;;
42846;SDS011;28495;49.916;14.536;2022-12-22T18:08:25;2.17;;;1.45;;
42846;SDS011;28495;49.916;14.536;2022-12-22T18:13:46;1.90;;;1.48;;
42846;SDS011;28495;49.916;14.536;2022-12-22T18:19:07;2.05;;;1.38;;
42846;SDS011;28495;49.916;14.536;2022-12-22T18:24:28;2.20;;;1.23;;
42846;SDS011;28495;49.916;14.536;2022-12-22T18:29:49;1.30;;;1.20;;
42846;SDS011;28495;49.916;14.536;2022-12-22T18:35:10;2.70;;;1.60;;
42846;SDS011;28495;49.916;14.536;2022-12-22T18:40:36;0.93;;;0.90;;
42846;SDS011;28495;49.916;14.536;2022-12-22T18:45:58;1.90;;;1.55;;
42846;SDS011;28495;49.916;14.536;2022-12-22T18:51:21;1.30;;;1.20;;
42846;SDS011;28495;49.916;14.536;2022-12-22T18:56:43;1.88;;;1.42;;
42846;SDS011;28495;49.916;14.536;2022-12-22T19:02:24;1.23;;;1.10;;
42846;SDS011;28495;49.916;14.536;2022-12-22T19:07:47;1.67;;;1.38;;
42846;SDS011;28495;49.916;14.536;2022-12-22T19:13:14;1.92;;;1.30;;
42846;SDS011;28495;49.916;14.536;2022-12-22T19:18:41;3.67;;;1.13;;
42846;SDS011;28495;49.916;14.536;2022-12-22T19:24:02;1.10;;;1.00;;
42846;SDS011;28495;49.916;14.536;2022-12-22T19:29:23;1.33;;;1.20;;
42846;SDS011;28495;49.916;14.536;2022-12-22T19:34:45;1.58;;;1.35;;
42846;SDS011;28495;49.916;14.536;2022-12-22T19:40:06;2.15;;;1.55;;
42846;SDS011;28495;49.916;14.536;2022-12-22T19:45:28;1.75;;;1.60;;
42846;SDS011;28495;49.916;14.536;2022-12-22T19:50:55;1.80;;;1.40;;
42846;SDS011;28495;49.916;14.536;2022-12-22T19:56:34;3.35;;;1.80;;
42846;SDS011;28495;49.916;14.536;2022-12-22T20:01:55;2.13;;;1.60;;
42846;SDS011;28495;49.916;14.536;2022-12-22T20:07:21;1.90;;;1.70;;
42846;SDS011;28495;49.916;14.536;2022-12-22T20:12:44;1.92;;;1.55;;
42846;SDS011;28495;49.916;14.536;2022-12-22T20:18:16;2.50;;;1.70;;
42846;SDS011;28495;49.916;14.536;2022-12-22T20:23:39;3.30;;;1.88;;
42846;SDS011;28495;49.916;14.536;2022-12-22T20:29:00;2.10;;;1.80;;
42846;SDS011;28495;49.916;14.536;2022-12-22T20:34:22;2.63;;;1.85;;
42846;SDS011;28495;49.916;14.536;2022-12-22T20:39:43;3.58;;;2.20;;
42846;SDS011;28495;49.916;14.536;2022-12-22T20:45:04;3.95;;;2.45;;
42846;SDS011;28495;49.916;14.536;2022-12-22T20:50:26;3.47;;;2.42;;
42846;SDS011;28495;49.916;14.536;2022-12-22T20:55:50;3.55;;;2.58;;
42846;SDS011;28495;49.916;14.536;2022-12-22T21:01:11;3.42;;;2.67;;
42846;SDS011;28495;49.916;14.536;2022-12-22T21:06:34;3.65;;;2.30;;
42846;SDS011;28495;49.916;14.536;2022-12-22T21:11:57;5.97;;;2.10;;
42846;SDS011;28495;49.916;14.536;2022-12-22T21:17:18;2.20;;;2.00;;
42846;SDS011;28495;49.916;14.536;2022-12-22T21:22:39;2.88;;;1.92;;
42846;SDS011;28495;49.916;14.536;2022-12-22T21:28:00;2.15;;;1.92;;
42846;SDS011;28495;49.916;14.536;2022-12-22T21:33:21;4.55;;;2.10;;
42846;SDS011;28495;49.916;14.536;2022-12-22T21:38:42;1.52;;;1.40;;
42846;SDS011;28495;49.916;14.536;2022-12-22T21:44:03;1.40;;;1.30;;
42846;SDS011;28495;49.916;14.536;2022-12-22T21:49:25;1.77;;;1.67;;
42846;SDS011;28495;49.916;14.536;2022-12-22T21:54:48;2.78;;;1.75;;
42846;SDS011;28495;49.916;14.536;2022-12-22T22:00:13;2.70;;;1.75;;
42846;SDS011;28495;49.916;14.536;2022-12-22T22:05:36;4.22;;;2.78;;
42846;SDS011;28495;49.916;14.536;2022-12-22T22:10:58;5.07;;;3.38;;
42846;SDS011;28495;49.916;14.536;2022-12-22T22:16:19;7.45;;;2.25;;
42846;SDS011;28495;49.916;14.536;2022-12-22T22:21:40;2.78;;;1.85;;
42846;SDS011;28495;49.916;14.536;2022-12-22T22:27:00;2.60;;;2.35;;
42846;SDS011;28495;49.916;14.536;2022-12-22T22:32:21;3.72;;;2.00;;
42846;SDS011;28495;49.916;14.536;2022-12-22T22:37:42;2.70;;;2.00;;
42846;SDS011;28495;49.916;14.536;2022-12-22T22:43:05;3.10;;;2.08;;
42846;SDS011;28495;49.916;14.536;2022-12-22T22:48:25;3.00;;;1.90;;
42846;SDS011;28495;49.916;14.536;2022-12-22T22:53:46;2.80;;;1.67;;
42846;SDS011;28495;49.916;14.536;2022-12-22T22:59:09;5.10;;;3.42;;
42846;SDS011;28495;49.916;14.536;2022-12-22T23:04:31;4.88;;;3.20;;
42846;SDS011;28495;49.916;14.536;2022-12-22T23:09:51;4.60;;;3.45;;
42846;SDS011;28495;49.916;14.536;2022-12-22T23:15:12;5.72;;;3.53;;
42846;SDS011;28495;49.916;14.536;2022-12-22T23:20:33;5.30;;;3.90;;
42846;SDS011;28495;49.916;14.536;2022-12-22T23:25:55;5.20;;;4.03;;
42846;SDS011;28495;49.916;14.536;2022-12-22T23:31:16;5.55;;;3.60;;
42846;SDS011;28495;49.916;14.536;2022-12-22T23:36:37;5.88;;;4.28;;
42846;SDS011;28495;49.916;14.536;2022-12-22T23:41:58;7.82;;;5.22;;
42846;SDS011;28495;49.916;14.536;2022-12-22T23:47:19;4.10;;;3.10;;
42846;SDS011;28495;49.916;14.536;2022-12-22T23:52:40;2.78;;;1.90;;
42846;SDS011;28495;49.916;14.536;2022-12-22T23:58:08;3.42;;;2.50;;
